createdAt,value
2018-11-03T00:02:19.081Z,4.33
2018-11-03T00:08:14.066Z,3.42
2018-11-03T00:14:09.109Z,3.6
2018-11-03T00:20:04.071Z,3.15
2018-11-03T00:25:59.103Z,3.08
2018-11-03T00:31:54.114Z,3.04
2018-11-03T00:37:49.090Z,2.36
2018-11-03T00:43:44.094Z,1.82
2018-11-03T00:49:39.093Z,2.1
2018-11-03T00:55:34.106Z,4.05
2018-11-03T01:01:29.130Z,2.7
2018-11-03T01:07:24.147Z,4.65
2018-11-03T01:13:19.135Z,4.42
2018-11-03T01:19:14.100Z,4.01
2018-11-03T01:25:09.108Z,3.83
2018-11-03T01:31:04.119Z,3.24
2018-11-03T01:36:59.107Z,2.76
2018-11-03T01:42:54.146Z,2.06
2018-11-03T01:48:49.156Z,2.15
2018-11-03T01:54:44.114Z,2.16
2018-11-03T02:00:39.127Z,2.11
2018-11-03T02:06:34.157Z,2.22
2018-11-03T02:12:29.150Z,2.43
2018-11-03T02:18:24.163Z,1.96
2018-11-03T02:24:19.148Z,2.81
2018-11-03T02:30:14.200Z,2.24
2018-11-03T02:36:09.169Z,1.93
2018-11-03T02:42:04.147Z,1.93
2018-11-03T02:47:59.163Z,1.53
2018-11-03T02:53:54.220Z,1.62
2018-11-03T02:59:49.247Z,1.5
2018-11-03T03:05:44.185Z,1.55
2018-11-03T03:11:39.191Z,1.33
2018-11-03T03:17:34.182Z,1.3
2018-11-03T03:23:29.268Z,1.22
2018-11-03T03:29:24.197Z,1.1
2018-11-03T03:35:19.202Z,1.13
2018-11-03T03:41:14.213Z,1.23
2018-11-03T03:47:09.249Z,1.19
2018-11-03T03:53:04.202Z,0.94
2018-11-03T03:58:59.215Z,1.51
2018-11-03T04:04:54.208Z,1.13
2018-11-03T04:10:49.266Z,1.19
2018-11-03T04:16:44.232Z,0.94
2018-11-03T04:22:39.262Z,1.01
2018-11-03T04:28:34.240Z,0.92
2018-11-03T04:34:29.226Z,1.12
2018-11-03T04:40:24.225Z,1.8
2018-11-03T04:46:19.256Z,1.03
2018-11-03T04:52:14.251Z,0.94
2018-11-03T04:58:09.357Z,1.22
2018-11-03T05:04:04.262Z,1.17
2018-11-03T05:09:59.342Z,1.5
2018-11-03T05:15:54.249Z,1.09
2018-11-03T05:21:49.335Z,1.26
2018-11-03T05:27:44.266Z,1.18
2018-11-03T05:33:39.252Z,1.63
2018-11-03T05:39:34.265Z,1.65
2018-11-03T05:45:29.310Z,1.77
2018-11-03T05:51:24.278Z,1.18
2018-11-03T05:57:19.363Z,1.39
2018-11-03T06:03:14.305Z,1.43
2018-11-03T06:09:09.287Z,1.52
2018-11-03T06:15:04.316Z,1.65
2018-11-03T06:20:59.299Z,1.46
2018-11-03T06:26:54.296Z,1.44
2018-11-03T06:32:49.334Z,1.49
2018-11-03T06:38:44.365Z,2.35
2018-11-03T06:44:39.322Z,2.18
2018-11-03T06:50:34.342Z,1.83
2018-11-03T06:56:29.338Z,2.28
2018-11-03T07:02:24.323Z,2.21
2018-11-03T07:08:19.336Z,1.92
2018-11-03T07:14:14.349Z,2.25
2018-11-03T07:20:09.339Z,2.17
2018-11-03T07:26:04.347Z,2.71
2018-11-03T07:31:59.370Z,2.61
2018-11-03T07:37:54.372Z,2.46
2018-11-03T07:43:49.356Z,3.66
2018-11-03T07:49:44.372Z,2.37
2018-11-03T07:55:39.368Z,4.09
2018-11-03T08:01:34.367Z,2.01
2018-11-03T08:07:29.377Z,2.01
2018-11-03T08:13:24.388Z,2.34
2018-11-03T08:19:19.381Z,2.72
2018-11-03T08:25:14.394Z,2.83
2018-11-03T08:31:09.418Z,3.8
2018-11-03T08:37:04.404Z,3.39
2018-11-03T08:42:59.385Z,3.83
2018-11-03T08:48:54.616Z,3.95
2018-11-03T08:54:49.410Z,4.6
2018-11-03T09:00:44.431Z,3.43
2018-11-03T09:06:39.419Z,3.36
2018-11-03T09:12:34.415Z,3.85
2018-11-03T09:18:29.401Z,3.87
2018-11-03T09:24:24.423Z,3.94
2018-11-03T09:30:19.465Z,3.75
2018-11-03T09:36:14.422Z,3.21
2018-11-03T09:42:09.429Z,8.02
2018-11-03T09:48:04.457Z,8.26
2018-11-03T09:53:59.486Z,4.08
2018-11-03T09:59:54.518Z,3.53
2018-11-03T10:05:49.471Z,3.29
2018-11-03T10:11:44.449Z,2.63
2018-11-03T10:17:39.471Z,3.58
2018-11-03T10:23:34.555Z,0.72
2018-11-03T10:29:29.475Z,0.6
2018-11-03T10:35:24.461Z,0.73
2018-11-03T10:41:19.469Z,0.69
2018-11-03T10:47:14.484Z,0.88
2018-11-03T10:53:09.501Z,1.35
2018-11-03T10:59:04.485Z,0.91
2018-11-03T11:04:59.498Z,1.88
2018-11-03T11:10:54.488Z,0.7
2018-11-03T11:16:49.546Z,1.05
2018-11-03T11:22:44.520Z,0.76
2018-11-03T11:28:39.559Z,0.94
2018-11-03T11:34:34.515Z,3.1
2018-11-03T11:40:29.548Z,5.93
2018-11-03T11:46:24.555Z,1.37
2018-11-03T11:52:19.581Z,1.55
2018-11-03T11:58:14.561Z,6.39
2018-11-03T12:04:09.550Z,3.59
2018-11-03T12:10:04.654Z,2.07
2018-11-03T12:15:59.561Z,3.92
2018-11-03T12:21:54.575Z,1.63
2018-11-03T12:27:49.564Z,5.06
2018-11-03T12:33:44.605Z,8.6
2018-11-03T12:39:39.543Z,8.41
2018-11-03T12:45:34.602Z,10.34
2018-11-03T12:51:29.574Z,6.53
2018-11-03T12:57:24.616Z,17.37
2018-11-03T13:03:19.635Z,18.41
2018-11-03T13:09:14.600Z,11.62
2018-11-03T13:15:09.603Z,3.82
2018-11-03T13:21:04.598Z,1.59
2018-11-03T13:26:59.609Z,2.37
2018-11-03T13:32:54.606Z,1.85
2018-11-03T13:38:49.595Z,1.51
2018-11-03T13:44:44.680Z,1.59
2018-11-03T13:50:39.634Z,1.46
2018-11-03T13:56:34.609Z,1.58
2018-11-03T14:02:29.636Z,1.64
2018-11-03T14:08:24.659Z,1.55
2018-11-03T14:14:19.665Z,1.32
2018-11-03T14:20:14.694Z,1.51
2018-11-03T14:26:09.647Z,1.17
2018-11-03T14:32:04.658Z,1.43
2018-11-03T14:37:59.666Z,1.23
2018-11-03T14:43:54.652Z,3.69
2018-11-03T14:49:49.672Z,6.71
2018-11-03T14:55:44.660Z,2.32
2018-11-03T15:01:39.683Z,3.09
2018-11-03T15:07:34.665Z,5.22
2018-11-03T15:13:29.765Z,2.82
2018-11-03T15:19:24.758Z,4.43
2018-11-03T15:25:19.681Z,4.72
2018-11-03T15:31:14.704Z,5.88
2018-11-03T15:37:09.739Z,3.88
2018-11-03T15:43:04.694Z,2.9
2018-11-03T15:48:59.699Z,3.28
2018-11-03T15:54:54.712Z,3.98
2018-11-03T16:00:49.704Z,5.49
2018-11-03T16:06:44.724Z,7.8
2018-11-03T16:12:39.909Z,2.27
2018-11-03T16:18:34.735Z,1.51
2018-11-03T16:24:29.739Z,1.93
2018-11-03T16:30:24.740Z,1.92
2018-11-03T16:36:19.731Z,1.6
2018-11-03T16:42:14.927Z,1.23
2018-11-03T16:48:09.762Z,1.29
2018-11-03T16:54:04.766Z,1.12
2018-11-03T16:59:59.753Z,2.82
2018-11-03T17:05:54.766Z,4.7
2018-11-03T17:11:49.763Z,3.23
2018-11-03T17:17:44.759Z,4.62
2018-11-03T17:23:39.782Z,24.28
2018-11-03T17:29:34.814Z,10.33
2018-11-03T17:35:29.793Z,4.86
2018-11-03T17:41:24.782Z,7.8
2018-11-03T17:47:19.811Z,20.33
2018-11-03T17:53:14.831Z,9.44
2018-11-03T17:59:09.786Z,7.68
2018-11-03T18:05:04.858Z,9.34
2018-11-03T18:10:59.810Z,8.13
2018-11-03T18:16:54.807Z,3.97
2018-11-03T18:22:49.805Z,3.34
2018-11-03T18:28:44.862Z,2.8
2018-11-03T18:34:39.869Z,1.98
2018-11-03T18:40:34.856Z,2.66
2018-11-03T18:46:29.926Z,2.4
2018-11-03T18:52:24.823Z,1.88
2018-11-03T18:58:19.860Z,1.7
2018-11-03T19:04:14.852Z,2.13
2018-11-03T19:10:09.855Z,1.67
2018-11-03T19:16:04.846Z,1.66
2018-11-03T19:21:59.875Z,1.66
2018-11-03T19:27:54.865Z,1.59
2018-11-03T19:33:49.876Z,1.44
2018-11-03T19:39:44.865Z,1.58
2018-11-03T19:45:39.878Z,1.7
2018-11-03T19:51:34.978Z,1.6
2018-11-03T19:57:29.884Z,1.46
2018-11-03T20:03:24.966Z,1.63
2018-11-03T20:09:19.891Z,1.8
2018-11-03T20:15:14.950Z,1.62
2018-11-03T20:21:09.969Z,1.58
2018-11-03T20:27:04.897Z,1.75
2018-11-03T20:32:59.947Z,2.05
2018-11-03T20:38:54.964Z,1.66
2018-11-03T20:44:49.975Z,1.76
2018-11-03T20:50:44.916Z,2.27
2018-11-03T20:56:39.916Z,1.94
2018-11-03T21:02:35.002Z,1.77
2018-11-03T21:08:29.946Z,1.79
2018-11-03T21:14:24.940Z,1.28
2018-11-03T21:20:19.940Z,1.45
2018-11-03T21:26:14.955Z,2.03
2018-11-03T21:32:10.085Z,1.48
2018-11-03T21:38:04.983Z,1.72
2018-11-03T21:43:59.967Z,2.23
2018-11-03T21:49:54.974Z,2.54
2018-11-03T21:55:50.027Z,1.7
2018-11-03T22:01:45.030Z,1.65
2018-11-03T22:07:39.971Z,1.29
2018-11-03T22:13:35.030Z,1.73
2018-11-03T22:19:29.980Z,1.57
2018-11-03T22:25:24.995Z,1.82
2018-11-03T22:31:20.040Z,1.72
2018-11-03T22:37:14.989Z,1.31
2018-11-03T22:43:10.006Z,1.69
2018-11-03T22:49:05.017Z,1.43
2018-11-03T22:55:00.014Z,1.51
2018-11-03T23:00:55.014Z,1.81
2018-11-03T23:06:50.044Z,2.03
2018-11-03T23:12:45.084Z,1.82
2018-11-03T23:18:40.094Z,2.03
2018-11-03T23:24:35.043Z,1.96
2018-11-03T23:30:30.031Z,1.54
2018-11-03T23:36:25.051Z,1.45
2018-11-03T23:42:20.059Z,1.69
2018-11-03T23:48:15.053Z,1.5
2018-11-03T23:54:10.107Z,1.64
